sensor_id;sensor_type;location;lat;lon;timestamp;pressure;altitude;pressure_sealevel;temperature;humidity
72428;BME280;60419;48.880;18.036;2023-10-19T00:01:41;98370.38;;;8.97;56.27
72428;BME280;60419;48.880;18.036;2023-10-19T00:04:26;98359.28;;;8.98;56.32
72428;BME280;60419;48.880;18.036;2023-10-19T00:07:15;98356.25;;;9.40;54.67
72428;BME280;60419;48.880;18.036;2023-10-19T00:10:00;98345.66;;;9.43;53.42
72428;BME280;60419;48.880;18.036;2023-10-19T00:12:49;98336.66;;;9.08;54.59
72428;BME280;60419;48.880;18.036;2023-10-19T00:15:43;98334.28;;;9.06;54.57
72428;BME280;60419;48.880;18.036;2023-10-19T00:18:37;98306.47;;;8.49;56.21
72428;BME280;60419;48.880;18.036;2023-10-19T00:21:27;98317.78;;;8.59;56.01
72428;BME280;60419;48.880;18.036;2023-10-19T00:24:13;98324.25;;;8.90;56.69
72428;BME280;60419;48.880;18.036;2023-10-19T00:27:02;98316.09;;;8.72;56.14
72428;BME280;60419;48.880;18.036;2023-10-19T00:30:05;98326.13;;;9.29;54.77
72428;BME280;60419;48.880;18.036;2023-10-19T00:32:51;98314.88;;;9.53;54.40
72428;BME280;60419;48.880;18.036;2023-10-19T00:35:38;98311.69;;;9.25;55.71
72428;BME280;60419;48.880;18.036;2023-10-19T00:38:32;98312.41;;;9.08;55.07
72428;BME280;60419;48.880;18.036;2023-10-19T00:41:23;98278.38;;;9.12;54.72
72428;BME280;60419;48.880;18.036;2023-10-19T00:44:14;98300.78;;;9.73;53.37
72428;BME280;60419;48.880;18.036;2023-10-19T00:47:07;98290.94;;;10.04;52.94
72428;BME280;60419;48.880;18.036;2023-10-19T00:49:59;98281.06;;;10.16;52.55
72428;BME280;60419;48.880;18.036;2023-10-19T00:52:50;98263.44;;;10.19;51.30
72428;BME280;60419;48.880;18.036;2023-10-19T00:55:35;98258.38;;;10.17;52.24
72428;BME280;60419;48.880;18.036;2023-10-19T00:58:21;98252.72;;;9.58;52.20
72428;BME280;60419;48.880;18.036;2023-10-19T01:01:15;98262.41;;;9.33;53.20
72428;BME280;60419;48.880;18.036;2023-10-19T01:04:03;98251.38;;;8.95;55.02
72428;BME280;60419;48.880;18.036;2023-10-19T01:06:49;98249.25;;;9.32;53.42
72428;BME280;60419;48.880;18.036;2023-10-19T01:09:52;98248.75;;;9.29;53.88
72428;BME280;60419;48.880;18.036;2023-10-19T01:12:38;98248.34;;;8.88;55.73
72428;BME280;60419;48.880;18.036;2023-10-19T01:15:24;98253.97;;;9.26;54.64
72428;BME280;60419;48.880;18.036;2023-10-19T01:18:14;98243.94;;;9.00;55.84
72428;BME280;60419;48.880;18.036;2023-10-19T01:21:02;98252.53;;;9.20;55.71
72428;BME280;60419;48.880;18.036;2023-10-19T01:23:50;98252.28;;;9.56;54.34
72428;BME280;60419;48.880;18.036;2023-10-19T01:26:35;98230.34;;;9.84;53.20
72428;BME280;60419;48.880;18.036;2023-10-19T01:29:22;98219.13;;;9.64;54.06
72428;BME280;60419;48.880;18.036;2023-10-19T01:32:12;98187.09;;;9.54;52.75
72428;BME280;60419;48.880;18.036;2023-10-19T01:35:00;98205.91;;;9.89;52.93
72428;BME280;60419;48.880;18.036;2023-10-19T01:37:45;98197.53;;;9.64;53.28
72428;BME280;60419;48.880;18.036;2023-10-19T01:40:31;98189.63;;;9.50;54.43
72428;BME280;60419;48.880;18.036;2023-10-19T01:43:17;98175.50;;;9.62;54.26
72428;BME280;60419;48.880;18.036;2023-10-19T01:46:06;98198.66;;;9.72;53.78
72428;BME280;60419;48.880;18.036;2023-10-19T01:49:12;98183.56;;;9.80;53.62
72428;BME280;60419;48.880;18.036;2023-10-19T01:51:57;98181.53;;;9.59;53.65
72428;BME280;60419;48.880;18.036;2023-10-19T01:54:43;98171.63;;;9.98;53.25
72428;BME280;60419;48.880;18.036;2023-10-19T01:57:28;98173.53;;;9.89;53.31
72428;BME280;60419;48.880;18.036;2023-10-19T02:00:14;98170.53;;;9.82;53.90
72428;BME280;60419;48.880;18.036;2023-10-19T02:03:08;98175.56;;;9.92;53.57
72428;BME280;60419;48.880;18.036;2023-10-19T02:06:01;98177.81;;;9.90;53.56
72428;BME280;60419;48.880;18.036;2023-10-19T02:08:59;98176.44;;;9.75;54.56
72428;BME280;60419;48.880;18.036;2023-10-19T02:12:03;98170.91;;;9.71;54.23
72428;BME280;60419;48.880;18.036;2023-10-19T02:14:51;98161.19;;;9.70;55.15
72428;BME280;60419;48.880;18.036;2023-10-19T02:17:36;98152.06;;;10.01;54.21
72428;BME280;60419;48.880;18.036;2023-10-19T02:20:22;98143.28;;;9.66;54.41
72428;BME280;60419;48.880;18.036;2023-10-19T02:23:09;98132.06;;;9.46;54.99
72428;BME280;60419;48.880;18.036;2023-10-19T02:25:55;98144.63;;;9.89;54.73
72428;BME280;60419;48.880;18.036;2023-10-19T02:28:41;98134.91;;;9.59;56.07
72428;BME280;60419;48.880;18.036;2023-10-19T02:31:29;98136.44;;;9.68;56.35
72428;BME280;60419;48.880;18.036;2023-10-19T02:34:14;98132.38;;;9.54;57.78
72428;BME280;60419;48.880;18.036;2023-10-19T02:37:03;98116.31;;;9.75;57.54
72428;BME280;60419;48.880;18.036;2023-10-19T02:39:48;98124.88;;;10.15;57.31
72428;BME280;60419;48.880;18.036;2023-10-19T02:42:34;98116.47;;;9.69;59.08
72428;BME280;60419;48.880;18.036;2023-10-19T02:45:19;98109.22;;;9.61;60.27
72428;BME280;60419;48.880;18.036;2023-10-19T02:48:05;98109.88;;;9.41;61.51
72428;BME280;60419;48.880;18.036;2023-10-19T02:50:56;98086.81;;;9.69;61.33
72428;BME280;60419;48.880;18.036;2023-10-19T02:53:51;98090.66;;;9.60;61.60
72428;BME280;60419;48.880;18.036;2023-10-19T02:56:36;98074.16;;;9.52;62.04
72428;BME280;60419;48.880;18.036;2023-10-19T02:59:25;98077.84;;;9.48;62.46
72428;BME280;60419;48.880;18.036;2023-10-19T03:02:10;98078.81;;;9.26;63.68
72428;BME280;60419;48.880;18.036;2023-10-19T03:04:56;98070.25;;;9.24;64.39
72428;BME280;60419;48.880;18.036;2023-10-19T03:07:41;98069.63;;;9.18;65.41
72428;BME280;60419;48.880;18.036;2023-10-19T03:10:30;98075.19;;;8.96;66.59
72428;BME280;60419;48.880;18.036;2023-10-19T03:13:27;98072.66;;;8.99;67.72
72428;BME280;60419;48.880;18.036;2023-10-19T03:16:13;98088.47;;;8.49;69.65
72428;BME280;60419;48.880;18.036;2023-10-19T03:18:58;98087.06;;;8.77;70.34
72428;BME280;60419;48.880;18.036;2023-10-19T03:21:43;98088.34;;;8.80;70.12
72428;BME280;60419;48.880;18.036;2023-10-19T03:24:29;98086.63;;;8.75;70.42
72428;BME280;60419;48.880;18.036;2023-10-19T03:27:21;98084.09;;;8.70;71.28
72428;BME280;60419;48.880;18.036;2023-10-19T03:30:07;98081.22;;;8.75;71.69
72428;BME280;60419;48.880;18.036;2023-10-19T03:32:53;98080.41;;;8.75;71.20
72428;BME280;60419;48.880;18.036;2023-10-19T03:35:39;98076.75;;;8.45;73.02
72428;BME280;60419;48.880;18.036;2023-10-19T03:38:27;98082.31;;;8.66;72.32
72428;BME280;60419;48.880;18.036;2023-10-19T03:41:17;98082.00;;;8.58;72.82
72428;BME280;60419;48.880;18.036;2023-10-19T03:44:06;98066.34;;;8.60;73.89
72428;BME280;60419;48.880;18.036;2023-10-19T03:46:52;98056.66;;;8.77;73.38
72428;BME280;60419;48.880;18.036;2023-10-19T03:49:38;98031.16;;;8.74;72.83
72428;BME280;60419;48.880;18.036;2023-10-19T03:52:24;98061.09;;;8.81;73.13
72428;BME280;60419;48.880;18.036;2023-10-19T03:55:15;98055.88;;;8.76;74.28
72428;BME280;60419;48.880;18.036;2023-10-19T03:58:03;98048.13;;;8.83;73.84
72428;BME280;60419;48.880;18.036;2023-10-19T04:00:49;98045.09;;;8.94;74.06
72428;BME280;60419;48.880;18.036;2023-10-19T04:03:35;98049.22;;;8.82;74.74
72428;BME280;60419;48.880;18.036;2023-10-19T04:06:21;98037.31;;;9.01;73.63
72428;BME280;60419;48.880;18.036;2023-10-19T04:09:07;98027.34;;;9.01;74.35
72428;BME280;60419;48.880;18.036;2023-10-19T04:11:55;97997.91;;;8.27;76.56
72428;BME280;60419;48.880;18.036;2023-10-19T04:14:41;98032.91;;;8.79;75.85
72428;BME280;60419;48.880;18.036;2023-10-19T04:17:26;98034.97;;;8.56;76.68
72428;BME280;60419;48.880;18.036;2023-10-19T04:20:14;98023.88;;;8.83;75.42
72428;BME280;60419;48.880;18.036;2023-10-19T04:23:23;98010.09;;;8.76;74.91
72428;BME280;60419;48.880;18.036;2023-10-19T04:26:13;98003.16;;;8.75;76.27
72428;BME280;60419;48.880;18.036;2023-10-19T04:28:59;98005.34;;;8.82;76.55
72428;BME280;60419;48.880;18.036;2023-10-19T04:31:44;98002.00;;;8.85;76.27
72428;BME280;60419;48.880;18.036;2023-10-19T04:34:40;97992.50;;;8.88;76.08
72428;BME280;60419;48.880;18.036;2023-10-19T04:37:25;98004.25;;;8.39;77.85
72428;BME280;60419;48.880;18.036;2023-10-19T04:40:11;97986.38;;;8.35;78.63
72428;BME280;60419;48.880;18.036;2023-10-19T04:42:57;97991.44;;;8.62;77.79
72428;BME280;60419;48.880;18.036;2023-10-19T04:45:43;97982.72;;;8.39;78.85
72428;BME280;60419;48.880;18.036;2023-10-19T04:48:29;97981.59;;;8.67;77.83
72428;BME280;60419;48.880;18.036;2023-10-19T04:51:16;97974.03;;;8.60;78.15
72428;BME280;60419;48.880;18.036;2023-10-19T04:54:02;97969.91;;;8.62;77.91
72428;BME280;60419;48.880;18.036;2023-10-19T04:56:47;97978.28;;;8.09;79.89
72428;BME280;60419;48.880;18.036;2023-10-19T04:59:33;97983.53;;;8.31;79.62
72428;BME280;60419;48.880;18.036;2023-10-19T05:02:18;97982.41;;;8.41;78.61
72428;BME280;60419;48.880;18.036;2023-10-19T05:05:04;97983.34;;;8.54;77.74
72428;BME280;60419;48.880;18.036;2023-10-19T05:07:49;97976.97;;;8.84;76.42
72428;BME280;60419;48.880;18.036;2023-10-19T05:10:35;97965.28;;;8.72;76.67
72428;BME280;60419;48.880;18.036;2023-10-19T05:13:22;97972.22;;;8.99;76.19
72428;BME280;60419;48.880;18.036;2023-10-19T05:16:07;97969.06;;;8.97;76.17
72428;BME280;60419;48.880;18.036;2023-10-19T05:18:52;97966.50;;;9.09;75.95
72428;BME280;60419;48.880;18.036;2023-10-19T05:21:38;97963.09;;;9.29;75.38
72428;BME280;60419;48.880;18.036;2023-10-19T05:24:23;97932.81;;;9.24;74.81
72428;BME280;60419;48.880;18.036;2023-10-19T05:27:09;97953.50;;;9.79;74.41
72428;BME280;60419;48.880;18.036;2023-10-19T05:29:54;97949.66;;;9.59;73.36
72428;BME280;60419;48.880;18.036;2023-10-19T05:32:40;97950.59;;;9.63;72.69
72428;BME280;60419;48.880;18.036;2023-10-19T05:35:26;97955.78;;;9.39;73.69
72428;BME280;60419;48.880;18.036;2023-10-19T05:38:11;97944.06;;;9.35;74.58
72428;BME280;60419;48.880;18.036;2023-10-19T05:40:57;97953.63;;;9.15;75.18
72428;BME280;60419;48.880;18.036;2023-10-19T05:43:44;97943.94;;;9.61;73.73
72428;BME280;60419;48.880;18.036;2023-10-19T05:46:29;97937.88;;;9.93;72.77
72428;BME280;60419;48.880;18.036;2023-10-19T05:49:15;97954.81;;;9.73;73.20
72428;BME280;60419;48.880;18.036;2023-10-19T05:52:02;97947.84;;;9.72;73.03
72428;BME280;60419;48.880;18.036;2023-10-19T05:54:48;97937.50;;;10.25;70.65
72428;BME280;60419;48.880;18.036;2023-10-19T05:57:35;97940.09;;;9.91;71.86
72428;BME280;60419;48.880;18.036;2023-10-19T06:00:21;97932.41;;;10.02;70.99
72428;BME280;60419;48.880;18.036;2023-10-19T06:03:10;97944.41;;;10.13;71.40
72428;BME280;60419;48.880;18.036;2023-10-19T06:05:56;97947.16;;;10.05;71.27
72428;BME280;60419;48.880;18.036;2023-10-19T06:08:41;97948.69;;;10.14;70.99
72428;BME280;60419;48.880;18.036;2023-10-19T06:11:28;97949.16;;;10.16;71.08
72428;BME280;60419;48.880;18.036;2023-10-19T06:14:17;97943.47;;;10.30;70.75
72428;BME280;60419;48.880;18.036;2023-10-19T06:17:02;97948.28;;;10.46;70.10
72428;BME280;60419;48.880;18.036;2023-10-19T06:19:49;97919.53;;;10.29;70.23
72428;BME280;60419;48.880;18.036;2023-10-19T06:22:35;97935.06;;;10.32;70.73
72428;BME280;60419;48.880;18.036;2023-10-19T06:25:21;97934.72;;;10.33;71.10
72428;BME280;60419;48.880;18.036;2023-10-19T06:28:07;97931.44;;;10.28;71.52
72428;BME280;60419;48.880;18.036;2023-10-19T06:30:52;97932.03;;;10.33;72.01
72428;BME280;60419;48.880;18.036;2023-10-19T06:33:38;97939.41;;;10.45;71.14
72428;BME280;60419;48.880;18.036;2023-10-19T06:36:28;97936.69;;;10.45;71.85
72428;BME280;60419;48.880;18.036;2023-10-19T06:39:14;97932.03;;;10.33;71.78
72428;BME280;60419;48.880;18.036;2023-10-19T06:41:59;97920.31;;;10.63;71.00
72428;BME280;60419;48.880;18.036;2023-10-19T06:44:45;97922.25;;;10.29;72.56
72428;BME280;60419;48.880;18.036;2023-10-19T06:47:30;97919.16;;;10.51;72.06
72428;BME280;60419;48.880;18.036;2023-10-19T06:50:18;97921.81;;;10.39;72.64
72428;BME280;60419;48.880;18.036;2023-10-19T06:53:04;97923.41;;;10.73;71.13
72428;BME280;60419;48.880;18.036;2023-10-19T06:55:50;97918.06;;;10.31;72.72
72428;BME280;60419;48.880;18.036;2023-10-19T06:58:35;97909.03;;;10.81;71.02
72428;BME280;60419;48.880;18.036;2023-10-19T07:01:21;97908.09;;;10.44;71.89
72428;BME280;60419;48.880;18.036;2023-10-19T07:04:11;97897.72;;;10.67;71.36
72428;BME280;60419;48.880;18.036;2023-10-19T07:06:56;97882.25;;;10.43;71.17
72428;BME280;60419;48.880;18.036;2023-10-19T07:09:42;97893.50;;;10.78;70.97
72428;BME280;60419;48.880;18.036;2023-10-19T07:12:27;97884.19;;;11.00;70.00
72428;BME280;60419;48.880;18.036;2023-10-19T07:15:13;97878.00;;;10.88;70.30
72428;BME280;60419;48.880;18.036;2023-10-19T07:17:59;97881.94;;;10.57;71.65
72428;BME280;60419;48.880;18.036;2023-10-19T07:20:44;97864.06;;;10.52;71.72
72428;BME280;60419;48.880;18.036;2023-10-19T07:23:33;97875.75;;;10.23;72.53
72428;BME280;60419;48.880;18.036;2023-10-19T07:26:19;97882.69;;;10.45;72.47
72428;BME280;60419;48.880;18.036;2023-10-19T07:29:06;97883.75;;;10.53;72.28
72428;BME280;60419;48.880;18.036;2023-10-19T07:31:55;97881.09;;;10.77;71.65
72428;BME280;60419;48.880;18.036;2023-10-19T07:34:40;97874.19;;;10.55;72.57
72428;BME280;60419;48.880;18.036;2023-10-19T07:37:26;97865.03;;;10.81;71.80
72428;BME280;60419;48.880;18.036;2023-10-19T07:40:12;97855.06;;;10.60;72.14
72428;BME280;60419;48.880;18.036;2023-10-19T07:42:59;97845.34;;;10.93;70.76
72428;BME280;60419;48.880;18.036;2023-10-19T07:45:44;97839.47;;;10.78;70.84
72428;BME280;60419;48.880;18.036;2023-10-19T07:48:30;97843.63;;;10.30;73.38
72428;BME280;60419;48.880;18.036;2023-10-19T07:51:15;97824.59;;;10.27;73.33
72428;BME280;60419;48.880;18.036;2023-10-19T07:54:01;97827.69;;;10.37;73.60
72428;BME280;60419;48.880;18.036;2023-10-19T07:56:46;97827.94;;;10.45;73.26
72428;BME280;60419;48.880;18.036;2023-10-19T07:59:32;97837.19;;;10.80;72.13
72428;BME280;60419;48.880;18.036;2023-10-19T08:02:18;97837.72;;;10.95;71.22
72428;BME280;60419;48.880;18.036;2023-10-19T08:05:04;97830.78;;;10.85;71.71
72428;BME280;60419;48.880;18.036;2023-10-19T08:07:52;97833.19;;;10.99;71.90
72428;BME280;60419;48.880;18.036;2023-10-19T08:10:37;97823.41;;;11.07;71.58
72428;BME280;60419;48.880;18.036;2023-10-19T08:13:23;97827.22;;;11.06;71.19
72428;BME280;60419;48.880;18.036;2023-10-19T08:16:08;97826.78;;;11.16;71.46
72428;BME280;60419;48.880;18.036;2023-10-19T08:18:54;97819.34;;;11.00;71.49
72428;BME280;60419;48.880;18.036;2023-10-19T08:21:39;97828.91;;;11.22;70.90
72428;BME280;60419;48.880;18.036;2023-10-19T08:24:24;97833.31;;;11.27;71.02
72428;BME280;60419;48.880;18.036;2023-10-19T08:27:10;97831.06;;;11.17;71.37
72428;BME280;60419;48.880;18.036;2023-10-19T08:29:56;97835.22;;;11.26;70.94
72428;BME280;60419;48.880;18.036;2023-10-19T08:32:41;97834.75;;;11.49;70.52
72428;BME280;60419;48.880;18.036;2023-10-19T08:35:27;97834.09;;;11.27;70.97
72428;BME280;60419;48.880;18.036;2023-10-19T08:38:12;97818.69;;;11.16;71.54
72428;BME280;60419;48.880;18.036;2023-10-19T08:40:58;97821.59;;;11.11;71.37
72428;BME280;60419;48.880;18.036;2023-10-19T08:43:45;97822.94;;;11.29;71.11
72428;BME280;60419;48.880;18.036;2023-10-19T08:46:30;97819.56;;;11.44;70.57
72428;BME280;60419;48.880;18.036;2023-10-19T08:49:16;97809.13;;;11.71;69.99
72428;BME280;60419;48.880;18.036;2023-10-19T08:52:07;97804.72;;;11.26;72.07
72428;BME280;60419;48.880;18.036;2023-10-19T08:54:53;97802.03;;;11.66;70.96
72428;BME280;60419;48.880;18.036;2023-10-19T08:57:39;97809.72;;;11.52;70.95
72428;BME280;60419;48.880;18.036;2023-10-19T09:00:25;97817.94;;;11.56;71.04
72428;BME280;60419;48.880;18.036;2023-10-19T09:03:11;97815.38;;;11.87;70.29
72428;BME280;60419;48.880;18.036;2023-10-19T09:06:04;97808.25;;;11.67;70.79
72428;BME280;60419;48.880;18.036;2023-10-19T09:08:50;97817.13;;;11.67;70.72
72428;BME280;60419;48.880;18.036;2023-10-19T09:11:36;97812.72;;;11.75;70.76
72428;BME280;60419;48.880;18.036;2023-10-19T09:14:33;97814.28;;;11.76;70.78
72428;BME280;60419;48.880;18.036;2023-10-19T09:17:29;97798.97;;;11.80;70.69
72428;BME280;60419;48.880;18.036;2023-10-19T09:20:15;97797.09;;;11.56;72.33
72428;BME280;60419;48.880;18.036;2023-10-19T09:23:12;97807.00;;;11.64;71.67
72428;BME280;60419;48.880;18.036;2023-10-19T09:26:00;97805.19;;;11.68;71.66
72428;BME280;60419;48.880;18.036;2023-10-19T09:28:50;97794.84;;;11.58;71.76
72428;BME280;60419;48.880;18.036;2023-10-19T09:31:36;97783.75;;;12.04;70.66
72428;BME280;60419;48.880;18.036;2023-10-19T09:34:23;97801.91;;;11.75;71.84
72428;BME280;60419;48.880;18.036;2023-10-19T09:37:16;97777.69;;;11.66;72.41
72428;BME280;60419;48.880;18.036;2023-10-19T09:40:03;97779.97;;;11.64;73.09
72428;BME280;60419;48.880;18.036;2023-10-19T09:42:49;97750.44;;;11.87;72.31
72428;BME280;60419;48.880;18.036;2023-10-19T09:45:41;97760.88;;;12.01;72.27
72428;BME280;60419;48.880;18.036;2023-10-19T09:48:27;97761.13;;;11.96;72.15
72428;BME280;60419;48.880;18.036;2023-10-19T09:51:14;97757.88;;;11.90;72.36
72428;BME280;60419;48.880;18.036;2023-10-19T09:57:13;97741.06;;;12.13;72.04
72428;BME280;60419;48.880;18.036;2023-10-19T10:00:04;97744.97;;;12.00;72.13
72428;BME280;60419;48.880;18.036;2023-10-19T10:02:56;97754.13;;;11.95;72.83
72428;BME280;60419;48.880;18.036;2023-10-19T10:08:29;97719.84;;;11.99;72.24
72428;BME280;60419;48.880;18.036;2023-10-19T10:11:26;97729.53;;;12.00;73.19
72428;BME280;60419;48.880;18.036;2023-10-19T10:14:23;97726.34;;;12.26;72.31
72428;BME280;60419;48.880;18.036;2023-10-19T10:17:17;97714.38;;;12.11;72.37
72428;BME280;60419;48.880;18.036;2023-10-19T10:23:17;97722.94;;;12.77;70.81
72428;BME280;60419;48.880;18.036;2023-10-19T10:26:06;97734.81;;;12.88;70.21
72428;BME280;60419;48.880;18.036;2023-10-19T10:29:14;97729.63;;;12.48;72.08
72428;BME280;60419;48.880;18.036;2023-10-19T10:32:04;97723.06;;;12.33;72.07
72428;BME280;60419;48.880;18.036;2023-10-19T10:34:53;97726.41;;;12.14;73.31
72428;BME280;60419;48.880;18.036;2023-10-19T10:37:38;97723.16;;;12.24;72.68
72428;BME280;60419;48.880;18.036;2023-10-19T10:40:25;97719.34;;;12.09;73.49
72428;BME280;60419;48.880;18.036;2023-10-19T10:43:11;97707.09;;;12.16;73.45
72428;BME280;60419;48.880;18.036;2023-10-19T10:46:07;97694.22;;;11.81;74.89
72428;BME280;60419;48.880;18.036;2023-10-19T10:48:55;97667.81;;;12.06;72.99
72428;BME280;60419;48.880;18.036;2023-10-19T10:51:41;97676.69;;;12.50;72.45
72428;BME280;60419;48.880;18.036;2023-10-19T10:54:26;97685.28;;;12.72;71.98
72428;BME280;60419;48.880;18.036;2023-10-19T10:57:12;97687.28;;;12.75;71.59
72428;BME280;60419;48.880;18.036;2023-10-19T11:00:12;97688.81;;;12.56;72.13
72428;BME280;60419;48.880;18.036;2023-10-19T11:03:03;97685.91;;;12.49;72.74
72428;BME280;60419;48.880;18.036;2023-10-19T11:05:49;97679.59;;;12.77;71.41
72428;BME280;60419;48.880;18.036;2023-10-19T11:08:36;97676.97;;;12.81;71.30
72428;BME280;60419;48.880;18.036;2023-10-19T11:11:22;97687.09;;;12.84;71.29
72428;BME280;60419;48.880;18.036;2023-10-19T11:14:10;97680.38;;;12.77;71.59
72428;BME280;60419;48.880;18.036;2023-10-19T11:17:11;97672.44;;;12.69;72.09
72428;BME280;60419;48.880;18.036;2023-10-19T11:19:58;97662.97;;;12.27;73.72
72428;BME280;60419;48.880;18.036;2023-10-19T11:22:54;97655.16;;;12.93;71.35
72428;BME280;60419;48.880;18.036;2023-10-19T11:25:41;97656.31;;;12.56;72.40
72428;BME280;60419;48.880;18.036;2023-10-19T11:28:26;97646.25;;;12.92;71.59
72428;BME280;60419;48.880;18.036;2023-10-19T11:31:20;97643.69;;;12.99;71.49
72428;BME280;60419;48.880;18.036;2023-10-19T11:34:09;97634.78;;;13.18;70.31
72428;BME280;60419;48.880;18.036;2023-10-19T11:36:58;97638.13;;;12.92;71.10
72428;BME280;60419;48.880;18.036;2023-10-19T11:39:44;97635.72;;;13.07;70.92
72428;BME280;60419;48.880;18.036;2023-10-19T11:42:30;97635.41;;;13.12;69.99
72428;BME280;60419;48.880;18.036;2023-10-19T11:45:17;97625.16;;;13.21;69.81
72428;BME280;60419;48.880;18.036;2023-10-19T11:48:03;97619.84;;;13.28;69.17
72428;BME280;60419;48.880;18.036;2023-10-19T11:50:49;97625.56;;;13.23;69.55
72428;BME280;60419;48.880;18.036;2023-10-19T11:53:36;97610.81;;;13.01;70.31
72428;BME280;60419;48.880;18.036;2023-10-19T11:56:22;97622.25;;;12.75;71.44
72428;BME280;60419;48.880;18.036;2023-10-19T11:59:10;97611.31;;;13.07;70.40
72428;BME280;60419;48.880;18.036;2023-10-19T12:01:57;97611.03;;;13.31;69.42
72428;BME280;60419;48.880;18.036;2023-10-19T12:04:44;97603.63;;;13.09;69.96
72428;BME280;60419;48.880;18.036;2023-10-19T12:07:30;97599.25;;;13.23;69.28
72428;BME280;60419;48.880;18.036;2023-10-19T12:10:19;97610.38;;;12.99;70.63
72428;BME280;60419;48.880;18.036;2023-10-19T12:13:07;97607.50;;;13.31;69.61
72428;BME280;60419;48.880;18.036;2023-10-19T12:15:54;97606.00;;;13.33;68.81
72428;BME280;60419;48.880;18.036;2023-10-19T12:18:40;97598.81;;;13.02;70.63
72428;BME280;60419;48.880;18.036;2023-10-19T12:21:27;97599.91;;;12.97;70.34
72428;BME280;60419;48.880;18.036;2023-10-19T12:24:13;97591.19;;;12.53;72.29
72428;BME280;60419;48.880;18.036;2023-10-19T12:27:00;97583.06;;;13.27;69.88
72428;BME280;60419;48.880;18.036;2023-10-19T12:29:45;97563.53;;;12.98;70.26
72428;BME280;60419;48.880;18.036;2023-10-19T12:32:31;97576.56;;;12.93;70.91
72428;BME280;60419;48.880;18.036;2023-10-19T12:35:16;97578.97;;;12.78;71.52
72428;BME280;60419;48.880;18.036;2023-10-19T12:38:05;97574.94;;;12.88;71.58
72428;BME280;60419;48.880;18.036;2023-10-19T12:40:51;97573.47;;;13.33;69.76
72428;BME280;60419;48.880;18.036;2023-10-19T12:43:37;97570.00;;;12.74;71.82
72428;BME280;60419;48.880;18.036;2023-10-19T12:46:23;97552.31;;;12.81;70.90
72428;BME280;60419;48.880;18.036;2023-10-19T12:49:09;97577.34;;;12.74;72.05
72428;BME280;60419;48.880;18.036;2023-10-19T12:52:01;97576.63;;;12.96;71.31
72428;BME280;60419;48.880;18.036;2023-10-19T12:54:48;97566.16;;;12.95;71.20
72428;BME280;60419;48.880;18.036;2023-10-19T12:57:36;97563.34;;;13.30;69.90
72428;BME280;60419;48.880;18.036;2023-10-19T13:00:21;97566.94;;;13.15;70.93
72428;BME280;60419;48.880;18.036;2023-10-19T13:03:21;97564.72;;;13.20;70.24
72428;BME280;60419;48.880;18.036;2023-10-19T13:06:07;97567.78;;;13.19;70.54
72428;BME280;60419;48.880;18.036;2023-10-19T13:08:52;97564.50;;;13.29;70.11
72428;BME280;60419;48.880;18.036;2023-10-19T13:11:38;97562.13;;;13.47;69.21
72428;BME280;60419;48.880;18.036;2023-10-19T13:14:24;97563.53;;;13.60;69.39
72428;BME280;60419;48.880;18.036;2023-10-19T13:17:10;97544.25;;;13.46;69.76
72428;BME280;60419;48.880;18.036;2023-10-19T13:19:56;97544.78;;;13.75;68.03
72428;BME280;60419;48.880;18.036;2023-10-19T13:22:46;97538.63;;;13.78;68.73
72428;BME280;60419;48.880;18.036;2023-10-19T13:25:33;97537.72;;;13.47;69.64
72428;BME280;60419;48.880;18.036;2023-10-19T13:28:27;97532.25;;;13.66;69.16
72428;BME280;60419;48.880;18.036;2023-10-19T13:31:12;97519.50;;;13.48;69.65
72428;BME280;60419;48.880;18.036;2023-10-19T13:34:01;97504.78;;;13.95;67.81
72428;BME280;60419;48.880;18.036;2023-10-19T13:36:48;97514.63;;;14.06;67.66
72428;BME280;60419;48.880;18.036;2023-10-19T13:39:34;97501.22;;;13.91;68.18
72428;BME280;60419;48.880;18.036;2023-10-19T13:42:20;97509.13;;;14.26;66.84
72428;BME280;60419;48.880;18.036;2023-10-19T13:45:06;97504.16;;;14.31;66.12
72428;BME280;60419;48.880;18.036;2023-10-19T13:47:52;97508.59;;;14.43;65.70
72428;BME280;60419;48.880;18.036;2023-10-19T13:50:46;97498.94;;;14.19;66.32
72428;BME280;60419;48.880;18.036;2023-10-19T13:53:33;97497.41;;;14.22;66.92
72428;BME280;60419;48.880;18.036;2023-10-19T13:56:18;97489.16;;;13.88;67.37
72428;BME280;60419;48.880;18.036;2023-10-19T13:59:04;97494.44;;;14.04;67.06
72428;BME280;60419;48.880;18.036;2023-10-19T14:01:50;97486.81;;;14.13;67.44
72428;BME280;60419;48.880;18.036;2023-10-19T14:04:35;97489.31;;;14.25;67.09
72428;BME280;60419;48.880;18.036;2023-10-19T14:07:21;97490.63;;;14.08;66.96
72428;BME280;60419;48.880;18.036;2023-10-19T14:10:08;97489.97;;;13.88;67.73
72428;BME280;60419;48.880;18.036;2023-10-19T14:12:57;97482.44;;;13.78;68.17
72428;BME280;60419;48.880;18.036;2023-10-19T14:15:42;97479.53;;;13.68;68.45
72428;BME280;60419;48.880;18.036;2023-10-19T14:18:28;97476.00;;;13.63;68.86
72428;BME280;60419;48.880;18.036;2023-10-19T14:21:15;97472.41;;;13.36;69.92
72428;BME280;60419;48.880;18.036;2023-10-19T14:24:00;97475.50;;;13.81;68.35
72428;BME280;60419;48.880;18.036;2023-10-19T14:26:46;97466.16;;;14.95;70.87
72428;BME280;60419;48.880;18.036;2023-10-19T14:29:32;97459.75;;;14.81;65.35
72428;BME280;60419;48.880;18.036;2023-10-19T14:32:17;97456.13;;;14.39;66.71
72428;BME280;60419;48.880;18.036;2023-10-19T14:35:03;97452.44;;;14.54;65.70
72428;BME280;60419;48.880;18.036;2023-10-19T14:37:52;97458.25;;;14.53;65.85
72428;BME280;60419;48.880;18.036;2023-10-19T14:40:41;97452.63;;;13.82;67.99
72428;BME280;60419;48.880;18.036;2023-10-19T14:43:29;97443.03;;;14.48;66.41
72428;BME280;60419;48.880;18.036;2023-10-19T14:46:15;97442.19;;;14.41;65.98
72428;BME280;60419;48.880;18.036;2023-10-19T14:49:01;97442.38;;;14.59;65.92